Time;durP1;ratioP1;P1;durP2;ratioP2;P2;SDS_P1;SDS_P2;PMS_P1;PMS_P2;Temp;Humidity;BMP_temperature;BMP_pressure;BME280_temperature;BME280_humidity;BME280_pressure;Samples;Min_cycle;Max_cycle;Signal;HPM_P1;HPM_P2
2023/12/27 00:00:58;;;;;;;10.55;2.58;;;;;;;0.15;100.00;102040.41;1042677;28;20300;-55
2023/12/27 00:02:13;;;;;;;5.10;2.20;;;;;;;0.37;100.00;102036.09;1030492;28;20313;-46
2023/12/27 00:03:06;;;;;;;3.15;2.22;;;;;;;0.21;100.00;102037.28;1036867;28;20140;-55
2023/12/27 00:04:08;;;;;;;7.10;1.83;;;;;;;0.32;100.00;102040.88;1044559;28;20296;-54
2023/12/27 00:05:30;;;;;;;3.35;2.00;;;;;;;0.38;100.00;102035.16;1040550;28;20866;-46
2023/12/27 00:06:25;;;;;;;;;;;;;;;0.38;100.00;102040.41;1035090;28;20439;-47
2023/12/27 00:07:42;;;;;;;4.80;2.03;;;;;;;0.26;100.00;102035.16;1029877;28;20319;-47
2023/12/27 00:08:56;;;;;;;4.05;2.40;;;;;;;0.39;100.00;102031.56;1031209;28;20318;-46
2023/12/27 00:09:54;;;;;;;3.58;1.60;;;;;;;0.52;100.00;102032.25;1034458;28;20310;-54
2023/12/27 00:11:01;;;;;;;2.95;2.05;;;;;;;0.52;100.00;102027.84;1032825;28;20727;-55
2023/12/27 00:12:13;;;;;;;7.50;2.70;;;;;;;0.63;100.00;102039.28;1035884;28;20684;-55
2023/12/27 00:13:00;;;;;;;3.97;2.63;;;;;;;0.74;100.00;102029.59;1038337;28;20854;-55
2023/12/27 00:13:51;;;;;;;3.83;2.05;;;;;;;0.56;100.00;102031.09;1044000;28;20397;-55
2023/12/27 00:14:43;;;;;;;3.65;2.47;;;;;;;0.40;100.00;102041.09;1037378;28;20312;-46
2023/12/27 00:15:23;;;;;;;3.85;2.15;;;;;;;0.30;100.00;102036.59;1027371;28;20381;-55
2023/12/27 00:16:19;;;;;;;3.13;1.92;;;;;;;0.34;100.00;102031.13;1027503;28;20890;-46
2023/12/27 00:17:47;;;;;;;3.78;2.17;;;;;;;0.14;100.00;102040.50;1020085;29;20307;-55
2023/12/27 00:18:41;;;;;;;2.28;1.60;;;;;;;0.01;100.00;102040.66;1038533;28;20301;-55
2023/12/27 00:19:18;;;;;;;16.08;2.17;;;;;;;0.12;100.00;102027.53;1039294;28;20372;-54
2023/12/27 00:20:11;;;;;;;2.53;1.98;;;;;;;0.07;100.00;102040.16;1042255;28;20706;-55
2023/12/27 00:22:25;;;;;;;6.90;2.95;;;;;;;0.04;100.00;102040.41;1036845;28;20700;-54
2023/12/27 00:23:22;;;;;;;6.15;2.75;;;;;;;0.03;100.00;102036.13;1033621;28;20305;-48
2023/12/27 00:24:17;;;;;;;5.63;2.92;;;;;;;-0.01;100.00;102029.44;1014561;29;20886;-54
2023/12/27 00:25:27;;;;;;;3.28;2.35;;;;;;;0.17;100.00;102021.94;1019545;28;20439;-46
2023/12/27 00:26:10;;;;;;;6.13;2.75;;;;;;;0.33;100.00;102030.28;1032392;28;20784;-48
2023/12/27 00:26:52;;;;;;;8.40;3.00;;;;;;;0.38;100.00;102028.13;1022933;28;20389;-46
2023/12/27 00:27:59;;;;;;;5.13;2.70;;;;;;;0.33;100.00;102025.03;1028013;28;20310;-53
2023/12/27 00:29:08;;;;;;;3.97;2.75;;;;;;;0.02;100.00;102021.34;1038819;28;20354;-55
2023/12/27 00:29:57;;;;;;;3.65;2.42;;;;;;;0.23;100.00;102024.91;1035227;28;20413;-45
2023/12/27 00:30:51;;;;;;;4.13;2.13;;;;;;;0.06;100.00;102021.94;1023918;28;20310;-50
2023/12/27 00:31:48;;;;;;;4.93;2.55;;;;;;;-0.05;100.00;102031.44;1027027;28;20678;-55
2023/12/27 00:32:43;;;;;;;4.40;3.08;;;;;;;-0.09;100.00;102018.72;1026322;28;20303;-48
2023/12/27 00:33:36;;;;;;;2.53;2.15;;;;;;;0.15;100.00;102016.81;1029462;28;20357;-55
2023/12/27 00:34:18;;;;;;;10.25;2.55;;;;;;;0.07;100.00;102018.38;1032031;28;20313;-55
2023/12/27 00:34:59;;;;;;;2.70;2.50;;;;;;;-0.01;100.00;102011.94;1028530;28;20364;-46
2023/12/27 00:35:50;;;;;;;5.85;1.92;;;;;;;0.07;100.00;102010.53;1027112;28;20385;-55
2023/12/27 00:37:47;;;;;;;3.17;2.40;;;;;;;-0.13;100.00;102017.28;1024667;28;20051;-46
2023/12/27 00:38:53;;;;;;;22.20;2.45;;;;;;;-0.23;100.00;102014.56;1030767;28;20910;-50
2023/12/27 00:39:34;;;;;;;13.52;1.92;;;;;;;-0.22;100.00;102018.00;1028448;28;20306;-54
2023/12/27 00:40:33;;;;;;;3.05;1.95;;;;;;;-0.17;100.00;102015.84;1028048;28;20313;-55
2023/12/27 00:41:17;;;;;;;5.05;1.98;;;;;;;-0.07;100.00;102019.44;1020270;28;20319;-47
2023/12/27 00:43:04;;;;;;;2.15;1.95;;;;;;;-0.12;100.00;102019.78;1029798;28;20862;-48
2023/12/27 00:44:10;;;;;;;2.35;2.00;;;;;;;-0.29;100.00;102030.69;1026759;28;20043;-47
2023/12/27 00:45:07;;;;;;;2.17;1.92;;;;;;;-0.35;100.00;102024.16;1029405;28;20858;-55
2023/12/27 00:46:09;;;;;;;2.63;2.30;;;;;;;-0.42;100.00;102020.34;1031798;28;20297;-49
2023/12/27 00:47:00;;;;;;;2.30;2.08;;;;;;;-0.34;100.00;102015.34;1023440;28;21417;-46
2023/12/27 00:47:57;;;;;;;3.67;2.08;;;;;;;-0.17;100.00;102021.09;1026150;28;20765;-48
2023/12/27 00:48:53;;;;;;;3.72;2.00;;;;;;;-0.11;100.00;102020.63;1027237;28;20325;-53
2023/12/27 00:49:33;;;;;;;18.02;2.53;;;;;;;-0.05;100.00;102030.63;1031723;28;20314;-55
2023/12/27 00:50:14;;;;;;;4.20;2.17;;;;;;;-0.09;100.00;102021.34;1019829;29;20352;-48
2023/12/27 00:51:19;;;;;;;12.98;2.60;;;;;;;-0.15;100.00;102019.19;1022553;28;20313;-46
2023/12/27 00:52:31;;;;;;;19.15;2.97;;;;;;;-0.18;100.00;102019.44;1031112;28;20316;-55
2023/12/27 00:53:26;;;;;;;6.10;2.75;;;;;;;-0.12;100.00;102016.34;1024954;28;20310;-55
2023/12/27 00:54:36;;;;;;;13.80;2.40;;;;;;;-0.06;100.00;102013.22;1024354;29;20891;-48
2023/12/27 00:55:32;;;;;;;57.22;4.80;;;;;;;-0.25;100.00;102007.75;1023712;29;20306;-48
2023/12/27 00:56:31;;;;;;;23.13;2.58;;;;;;;-0.31;100.00;102012.50;1025061;28;20291;-55
2023/12/27 00:57:22;;;;;;;12.82;2.22;;;;;;;-0.47;100.00;102019.03;1026023;28;20306;-55
2023/12/27 00:58:04;;;;;;;6.53;1.80;;;;;;;-0.52;100.00;102011.53;1029312;28;20312;-55
2023/12/27 00:59:06;;;;;;;8.57;2.53;;;;;;;-0.47;100.00;102019.03;1016074;29;20367;-47
2023/12/27 01:01:07;;;;;;;3.47;1.83;;;;;;;-0.28;100.00;102028.91;1035922;28;20348;-50
2023/12/27 01:02:06;;;;;;;5.80;2.67;;;;;;;-0.35;100.00;102018.91;1029900;28;20306;-50
2023/12/27 01:02:43;;;;;;;3.40;1.73;;;;;;;-0.43;100.00;102029.13;1033739;28;20307;-46
2023/12/27 01:03:28;;;;;;;13.23;1.95;;;;;;;-0.45;100.00;102019.75;1032363;28;20358;-46
2023/12/27 01:04:19;;;;;;;13.13;2.20;;;;;;;-0.46;100.00;102018.91;1032803;28;20298;-55
2023/12/27 01:05:16;;;;;;;7.28;1.73;;;;;;;-0.44;100.00;102019.63;1031155;28;20306;-46
2023/12/27 01:06:19;;;;;;;9.95;1.90;;;;;;;-0.38;100.00;102011.31;1028317;28;20142;-55
2023/12/27 01:07:17;;;;;;;4.03;2.30;;;;;;;-0.03;100.00;102010.38;1022521;29;20531;-46
2023/12/27 01:08:11;;;;;;;9.93;4.00;;;;;;;0.04;100.00;102014.22;1035839;28;20301;-46
2023/12/27 01:08:48;;;;;;;2.95;2.30;;;;;;;0.03;100.00;102007.31;1032934;28;20050;-48
2023/12/27 01:09:43;;;;;;;12.65;2.25;;;;;;;0.11;100.00;102006.72;1031345;28;20704;-54
2023/12/27 01:10:37;;;;;;;3.28;2.35;;;;;;;-0.01;100.00;102011.94;1031256;28;20382;-55
2023/12/27 01:11:27;;;;;;;6.60;2.45;;;;;;;0.07;100.00;102018.38;1036129;28;20312;-48
2023/12/27 01:12:14;;;;;;;4.10;2.60;;;;;;;-0.02;100.00;102012.88;1034315;28;20858;-48
2023/12/27 01:12:57;;;;;;;6.70;2.63;;;;;;;-0.11;100.00;102020.63;1029888;28;20927;-46
2023/12/27 01:13:59;;;;;;;3.95;3.47;;;;;;;0.11;100.00;102019.81;1024543;28;20299;-53
2023/12/27 01:14:48;;;;;;;5.03;2.92;;;;;;;0.20;100.00;102019.91;1033518;28;20304;-52
2023/12/27 01:15:29;;;;;;;4.10;3.65;;;;;;;0.10;100.00;102012.91;1033153;28;20394;-48
2023/12/27 01:17:38;;;;;;;4.47;2.90;;;;;;;-0.03;100.00;102018.22;1025818;28;20307;-49
2023/12/27 01:18:16;;;;;;;7.22;3.08;;;;;;;-0.04;100.00;102009.53;1031979;28;20308;-55
2023/12/27 01:18:56;;;;;;;3.00;2.63;;;;;;;-0.15;100.00;102009.56;1034760;28;20301;-46
2023/12/27 01:19:51;;;;;;;6.18;2.88;;;;;;;-0.49;100.00;102016.53;1018880;29;20043;-55
2023/12/27 01:20:36;;;;;;;6.38;2.13;;;;;;;-0.45;100.00;102012.72;1018851;29;20307;-47
2023/12/27 01:21:54;;;;;;;5.43;3.80;;;;;;;-0.48;100.00;102018.19;1020056;29;20534;-48
2023/12/27 01:22:38;;;;;;;4.97;2.45;;;;;;;-0.47;100.00;102004.16;1010372;29;20603;-47
2023/12/27 01:23:32;;;;;;;12.45;2.60;;;;;;;-0.36;100.00;102019.03;1012039;29;20235;-47
2023/12/27 01:24:28;;;;;;;;;;;;;;;;;;;;;
2023/12/27 01:25:24;;;;;;;3.45;2.45;;;;;;;-0.43;100.00;102016.06;1019354;29;20315;-49
2023/12/27 01:26:13;;;;;;;;;;;;;;;-0.55;100.00;102016.97;1019788;29;20343;-54
2023/12/27 01:27:05;;;;;;;3.58;2.47;;;;;;;-0.64;100.00;102017.66;1019723;29;19923;-47
2023/12/27 01:27:52;;;;;;;3.30;2.25;;;;;;;-0.59;100.00;102020.75;1016580;29;20328;-47
2023/12/27 01:28:37;;;;;;;6.75;2.75;;;;;;;-0.57;100.00;102016.25;1011282;29;20629;-51
2023/12/27 01:29:19;;;;;;;4.45;2.45;;;;;;;-0.55;100.00;102022.19;1015157;29;20296;-54
2023/12/27 01:30:23;;;;;;;7.53;2.50;;;;;;;-0.65;100.00;102021.22;1010444;29;20311;-46
2023/12/27 01:31:01;;;;;;;7.43;2.20;;;;;;;-0.56;100.00;102025.75;1016373;29;21060;-47
2023/12/27 01:31:45;;;;;;;10.57;3.60;;;;;;;-0.58;100.00;102027.66;1020827;29;20725;-54
2023/12/27 01:32:41;;;;;;;7.80;2.20;;;;;;;-0.60;100.00;102024.31;1015673;29;20314;-55
2023/12/27 01:33:23;;;;;;;3.70;2.55;;;;;;;-0.54;100.00;102036.97;1013373;29;20399;-47
2023/12/27 01:34:18;;;;;;;7.28;3.08;;;;;;;-0.55;100.00;102037.91;1008565;29;20092;-46
2023/12/27 01:35:03;;;;;;;5.72;2.30;;;;;;;-0.57;100.00;102033.72;1012671;29;20309;-55
2023/12/27 01:35:57;;;;;;;7.25;2.50;;;;;;;-0.56;100.00;102031.00;1025661;28;20393;-46
2023/12/27 01:36:43;;;;;;;2.67;2.33;;;;;;;-0.42;100.00;102033.44;1022698;29;20338;-46
2023/12/27 01:37:44;;;;;;;6.03;2.83;;;;;;;-0.41;100.00;102034.25;1018829;29;20329;-55
2023/12/27 01:38:36;;;;;;;4.32;2.42;;;;;;;-0.58;100.00;102035.50;1018009;29;20347;-45
2023/12/27 01:39:34;;;;;;;4.25;3.20;;;;;;;-0.48;100.00;102033.91;1013080;29;20371;-46
2023/12/27 01:40:14;;;;;;;4.97;2.35;;;;;;;-0.50;100.00;102035.78;1018229;29;20593;-55
2023/12/27 01:41:01;;;;;;;2.70;2.50;;;;;;;-0.40;100.00;102035.94;1014043;29;20804;-47
2023/12/27 01:42:00;;;;;;;5.78;3.20;;;;;;;-0.39;100.00;102033.19;1017009;29;20374;-46
2023/12/27 01:42:45;;;;;;;3.97;2.80;;;;;;;-0.37;100.00;102030.44;1019459;29;20389;-53
2023/12/27 01:43:27;;;;;;;4.38;2.50;;;;;;;-0.41;100.00;102026.41;1024475;29;20315;-46
2023/12/27 01:44:16;;;;;;;3.72;2.67;;;;;;;-0.20;100.00;102027.41;1018727;29;20759;-52
2023/12/27 01:45:05;;;;;;;6.82;2.70;;;;;;;-0.16;100.00;102028.00;1018059;29;20044;-50
2023/12/27 01:45:53;;;;;;;5.00;2.83;;;;;;;-0.23;100.00;102032.88;1020030;29;20395;-46
2023/12/27 01:46:43;;;;;;;3.67;3.00;;;;;;;-0.25;100.00;102028.72;1016940;29;20108;-55
2023/12/27 01:47:41;;;;;;;5.03;3.15;;;;;;;-0.26;100.00;102027.03;1008259;29;20313;-55
2023/12/27 01:48:29;;;;;;;5.75;3.50;;;;;;;-0.17;100.00;102027.16;1012771;29;20308;-49
2023/12/27 01:51:03;;;;;;;20.02;3.65;;;;;;;-0.32;100.00;102023.91;1023847;29;20320;-46
2023/12/27 01:52:20;;;;;;;4.03;2.90;;;;;;;-0.36;100.00;102027.72;1024706;28;20907;-55
2023/12/27 01:53:02;;;;;;;4.35;2.85;;;;;;;-0.46;100.00;102032.00;1020939;29;20322;-47
2023/12/27 01:53:57;;;;;;;5.82;4.45;;;;;;;-0.36;100.00;102027.72;1021662;29;20346;-52
2023/12/27 01:54:54;;;;;;;7.95;3.97;;;;;;;-0.38;100.00;102026.16;1026978;28;20306;-48
2023/12/27 01:55:42;;;;;;;6.57;2.75;;;;;;;-0.34;100.00;102030.22;1020132;29;20056;-54
2023/12/27 01:56:25;;;;;;;9.60;3.22;;;;;;;-0.40;100.00;102025.47;1019685;29;20307;-54
2023/12/27 01:57:34;;;;;;;3.92;2.55;;;;;;;-0.45;100.00;102022.34;1010825;29;20764;-55
2023/12/27 01:58:17;;;;;;;3.65;2.78;;;;;;;-0.40;100.00;102021.06;1023009;28;20303;-46
2023/12/27 01:59:15;;;;;;;3.65;2.97;;;;;;;-0.19;100.00;102036.94;1039049;28;21079;-46
2023/12/27 02:00:06;;;;;;;6.45;3.35;;;;;;;0.08;100.00;102022.66;1027359;28;20306;-47
2023/12/27 02:01:02;;;;;;;4.88;3.78;;;;;;;-0.14;100.00;102031.34;1033215;28;20294;-47
2023/12/27 02:01:50;;;;;;;8.00;3.58;;;;;;;-0.09;100.00;102034.44;1028955;28;20847;-47
2023/12/27 02:04:08;;;;;;;11.93;3.10;;;;;;;-0.09;100.00;102029.19;1029069;28;20334;-54
2023/12/27 02:05:04;;;;;;;7.47;2.90;;;;;;;-0.10;100.00;102032.75;1032441;28;20394;-55
2023/12/27 02:06:02;;;;;;;6.50;3.15;;;;;;;-0.11;100.00;102033.72;1037247;28;20331;-46
2023/12/27 02:06:53;;;;;;;8.68;3.53;;;;;;;-0.02;100.00;102036.44;1034524;28;20415;-54
2023/12/27 02:07:40;;;;;;;4.82;3.28;;;;;;;0.04;100.00;102035.16;1035387;28;20300;-55
2023/12/27 02:08:13;;;;;;;5.55;3.28;;;;;;;0.14;100.00;102030.03;1036836;28;20335;-53
2023/12/27 02:08:45;;;;;;;6.25;3.35;;;;;;;0.07;100.00;102028.84;1043322;28;20773;-54
2023/12/27 02:09:17;;;;;;;5.65;3.25;;;;;;;-0.02;100.00;102033.00;1039724;28;20715;-46
2023/12/27 02:09:50;;;;;;;7.85;3.33;;;;;;;-0.03;100.00;102039.19;1039274;28;20818;-46
2023/12/27 02:10:22;;;;;;;5.80;3.22;;;;;;;0.01;100.00;102035.41;1035024;28;20297;-46
2023/12/27 02:10:54;;;;;;;5.30;4.05;;;;;;;0.02;100.00;102036.25;1032130;28;20381;-49
2023/12/27 02:11:25;;;;;;;5.78;3.83;;;;;;;0.20;100.00;102034.78;1030872;28;20364;-47
2023/12/27 02:11:59;;;;;;;8.13;4.07;;;;;;;0.24;100.00;102029.19;1027613;28;20305;-47
2023/12/27 02:12:31;;;;;;;7.60;3.67;;;;;;;0.26;100.00;102035.16;1028859;28;20306;-46
2023/12/27 02:13:04;;;;;;;8.25;2.95;;;;;;;0.27;100.00;102026.34;1032415;28;20693;-47
2023/12/27 02:13:36;;;;;;;5.35;3.85;;;;;;;0.30;100.00;102028.75;1035333;28;20296;-46
2023/12/27 02:14:08;;;;;;;4.95;3.72;;;;;;;0.32;100.00;102022.53;1035529;28;20300;-54
2023/12/27 02:14:40;;;;;;;8.07;3.65;;;;;;;0.31;100.00;102026.94;1039930;28;20291;-55
2023/12/27 02:15:12;;;;;;;6.03;3.50;;;;;;;0.35;100.00;102017.88;1039243;28;20450;-55
2023/12/27 02:15:44;;;;;;;6.13;4.13;;;;;;;0.33;100.00;102021.59;1039940;28;20380;-54
2023/12/27 02:16:20;;;;;;;4.15;3.78;;;;;;;0.37;100.00;102021.22;1039752;28;20299;-54
2023/12/27 02:16:52;;;;;;;6.95;4.93;;;;;;;0.37;100.00;102015.16;1040274;28;20303;-55
2023/12/27 02:17:26;;;;;;;7.60;4.88;;;;;;;0.37;100.00;102017.75;1038883;28;20315;-54
2023/12/27 02:18:00;;;;;;;6.03;4.00;;;;;;;0.35;100.00;102024.91;1031425;28;20294;-54
2023/12/27 02:18:33;;;;;;;9.13;5.25;;;;;;;0.39;100.00;102023.72;1031301;28;20304;-54
2023/12/27 02:19:06;;;;;;;8.93;4.90;;;;;;;0.45;100.00;102015.38;1034893;28;20311;-55
2023/12/27 02:19:38;;;;;;;5.78;5.07;;;;;;;0.43;100.00;102014.66;1039222;28;20739;-54
2023/12/27 02:20:10;;;;;;;9.60;4.32;;;;;;;0.50;100.00;102011.41;1038989;28;20311;-54
2023/12/27 02:20:43;;;;;;;7.85;4.70;;;;;;;0.53;100.00;102016.41;1039088;28;20307;-54
2023/12/27 02:21:15;;;;;;;8.32;5.28;;;;;;;0.43;100.00;102017.28;1034857;28;20362;-55
2023/12/27 02:21:51;;;;;;;7.63;5.03;;;;;;;0.05;100.00;102015.03;1027206;28;20329;-54
2023/12/27 02:22:23;;;;;;;13.10;4.57;;;;;;;0.14;100.00;102015.16;1033916;28;20402;-53
2023/12/27 02:22:57;;;;;;;10.60;5.78;;;;;;;0.25;100.00;102017.75;1028116;28;20316;-54
2023/12/27 02:23:29;;;;;;;7.40;4.80;;;;;;;0.23;100.00;102016.22;1032454;28;20312;-54
2023/12/27 02:24:01;;;;;;;9.13;5.25;;;;;;;0.20;100.00;102022.53;1033217;28;20443;-54
2023/12/27 02:24:35;;;;;;;9.25;5.38;;;;;;;0.21;100.00;102018.13;1025838;28;20342;-54
2023/12/27 02:25:08;;;;;;;13.50;5.90;;;;;;;0.19;100.00;102023.47;1031489;28;20293;-53
2023/12/27 02:25:41;;;;;;;10.55;5.07;;;;;;;0.32;100.00;102017.31;1033906;28;20297;-54
2023/12/27 02:26:13;;;;;;;8.32;5.55;;;;;;;0.37;100.00;102020.38;1032860;28;20913;-53
2023/12/27 02:26:44;;;;;;;7.30;5.43;;;;;;;0.32;100.00;102020.75;1038922;28;20307;-55
2023/12/27 02:27:16;;;;;;;9.15;4.95;;;;;;;0.33;100.00;102018.97;1034942;28;20304;-48
2023/12/27 02:27:48;;;;;;;6.28;4.68;;;;;;;0.36;100.00;102013.47;1035327;28;20663;-46
2023/12/27 02:28:20;;;;;;;9.60;4.80;;;;;;;0.36;100.00;102013.47;1039167;28;20296;-46
2023/12/27 02:28:51;;;;;;;7.30;5.47;;;;;;;0.35;100.00;102012.66;1039701;28;20376;-46
2023/12/27 02:29:23;;;;;;;6.93;5.80;;;;;;;0.27;100.00;102010.63;1041560;28;20369;-46
2023/12/27 02:29:55;;;;;;;7.47;5.28;;;;;;;0.21;100.00;102010.25;1043241;28;20360;-54
2023/12/27 02:30:26;;;;;;;7.70;5.22;;;;;;;0.18;100.00;102006.09;1039749;28;20389;-54
2023/12/27 02:30:58;;;;;;;7.20;5.53;;;;;;;0.17;100.00;102009.66;1036753;28;20300;-55
2023/12/27 02:31:30;;;;;;;7.05;5.20;;;;;;;0.18;100.00;102005.25;1036332;28;20309;-54
2023/12/27 02:32:02;;;;;;;7.57;5.25;;;;;;;0.31;100.00;102006.00;1039212;28;20334;-54
2023/12/27 02:32:36;;;;;;;6.35;5.25;;;;;;;0.45;100.00;102000.47;1037932;28;20307;-54
2023/12/27 02:33:08;;;;;;;5.28;3.80;;;;;;;0.47;100.00;102005.59;1043683;28;20331;-54
2023/12/27 02:33:44;;;;;;;5.43;3.97;;;;;;;0.47;100.00;102000.34;1039571;28;20365;-55
2023/12/27 02:34:15;;;;;;;10.63;5.75;;;;;;;0.24;100.00;102005.63;1039697;28;20645;-55
2023/12/27 02:34:47;;;;;;;10.77;5.57;;;;;;;0.32;100.00;102002.41;1041482;28;20296;-46
2023/12/27 02:35:19;;;;;;;6.55;4.40;;;;;;;0.42;100.00;102005.97;1043572;28;20303;-46
2023/12/27 02:35:51;;;;;;;18.67;5.20;;;;;;;0.42;100.00;102002.50;1042973;28;20299;-47
2023/12/27 02:36:23;;;;;;;8.25;4.93;;;;;;;0.37;100.00;102004.66;1040369;28;20330;-48
2023/12/27 02:36:54;;;;;;;5.32;4.45;;;;;;;0.40;100.00;102000.00;1039488;28;22168;-46
2023/12/27 02:37:26;;;;;;;5.43;3.75;;;;;;;0.42;100.00;102005.97;1039632;28;20370;-55
2023/12/27 02:37:58;;;;;;;4.55;4.15;;;;;;;0.29;100.00;102008.72;1037261;28;20312;-55
2023/12/27 02:38:30;;;;;;;6.70;4.35;;;;;;;0.30;100.00;101999.09;1033022;28;20870;-55
2023/12/27 02:39:02;;;;;;;13.02;4.82;;;;;;;0.38;100.00;102001.09;1034768;28;20300;-54
2023/12/27 02:39:33;;;;;;;8.93;5.18;;;;;;;0.20;100.00;101993.72;1031318;28;20312;-55
2023/12/27 02:40:06;;;;;;;5.68;4.95;;;;;;;0.24;100.00;101996.91;1031205;28;20301;-55
2023/12/27 02:40:37;;;;;;;7.63;4.40;;;;;;;0.21;100.00;101999.78;1035462;28;20304;-55
2023/12/27 02:41:09;;;;;;;6.35;4.95;;;;;;;0.23;100.00;101988.22;1036996;28;20983;-54
2023/12/27 02:41:40;;;;;;;5.47;4.35;;;;;;;0.25;100.00;101986.31;1043228;28;20310;-55
2023/12/27 02:42:16;;;;;;;4.70;4.15;;;;;;;0.21;100.00;101990.13;1041527;28;20430;-55
2023/12/27 02:42:48;;;;;;;6.07;4.57;;;;;;;0.20;100.00;101983.22;1043392;28;20295;-48
2023/12/27 02:43:20;;;;;;;6.75;4.95;;;;;;;0.29;100.00;101987.75;1043041;28;20292;-48
2023/12/27 02:43:51;;;;;;;7.55;4.50;;;;;;;0.24;100.00;101979.41;1039316;28;20334;-47
2023/12/27 02:44:26;;;;;;;11.23;5.22;;;;;;;0.24;100.00;101979.41;1039300;28;20434;-46
2023/12/27 02:44:58;;;;;;;5.72;4.70;;;;;;;0.29;100.00;101987.75;1039897;28;20504;-54
2023/12/27 02:45:29;;;;;;;8.77;4.85;;;;;;;0.29;100.00;101982.53;1043238;28;20313;-55
2023/12/27 02:46:01;;;;;;;5.93;4.47;;;;;;;0.35;100.00;101985.59;1042914;28;20307;-54
2023/12/27 02:46:33;;;;;;;7.63;5.15;;;;;;;0.38;100.00;101986.19;1037779;28;20307;-55
2023/12/27 02:47:06;;;;;;;10.77;4.97;;;;;;;0.42;100.00;101978.91;1035237;28;20487;-55
2023/12/27 02:47:38;;;;;;;12.35;4.68;;;;;;;0.26;100.00;101980.13;1032962;28;20301;-55
2023/12/27 02:48:09;;;;;;;6.18;4.57;;;;;;;0.26;100.00;101979.28;1034515;28;20316;-55
2023/12/27 02:48:41;;;;;;;6.35;4.82;;;;;;;0.39;100.00;101979.16;1035034;28;20297;-55
2023/12/27 02:49:13;;;;;;;10.57;5.05;;;;;;;0.39;100.00;101979.16;1037810;28;20296;-54
2023/12/27 02:49:45;;;;;;;8.00;5.05;;;;;;;0.14;100.00;101982.88;1035801;28;21239;-54
2023/12/27 02:50:17;;;;;;;7.72;5.50;;;;;;;0.16;100.00;101976.56;1039127;28;20815;-47
2023/12/27 02:50:49;;;;;;;6.80;5.22;;;;;;;0.20;100.00;101971.91;1039633;28;20802;-46
2023/12/27 02:51:20;;;;;;;9.02;4.80;;;;;;;0.32;100.00;101976.22;1035582;28;20683;-46
2023/12/27 02:51:52;;;;;;;10.07;5.53;;;;;;;0.33;100.00;101967.38;1041256;28;20314;-48
2023/12/27 02:52:24;;;;;;;11.52;4.70;;;;;;;0.39;100.00;101972.13;1038512;28;20399;-47
2023/12/27 02:52:55;;;;;;;12.88;5.63;;;;;;;0.45;100.00;101973.44;1030527;28;20337;-55
2023/12/27 02:53:27;;;;;;;9.50;4.45;;;;;;;0.53;100.00;101963.16;1030721;28;20309;-54
2023/12/27 02:53:58;;;;;;;13.20;6.05;;;;;;;0.58;100.00;101967.09;1031479;28;20293;-55
2023/12/27 02:54:30;;;;;;;6.88;5.20;;;;;;;0.54;100.00;101959.56;1027901;28;20309;-55
2023/12/27 02:55:02;;;;;;;9.23;4.43;;;;;;;0.59;100.00;101966.13;1035687;28;20300;-55
2023/12/27 02:55:34;;;;;;;7.45;4.60;;;;;;;0.47;100.00;101964.47;1034072;28;20300;-46
2023/12/27 02:56:06;;;;;;;8.38;5.00;;;;;;;0.49;100.00;101965.19;1034751;28;20313;-46
2023/12/27 02:56:37;;;;;;;9.05;4.68;;;;;;;0.54;100.00;101965.66;1035631;28;20794;-46
2023/12/27 02:57:09;;;;;;;8.02;4.60;;;;;;;0.53;100.00;101963.16;1035138;28;20320;-46
2023/12/27 02:57:41;;;;;;;21.05;5.18;;;;;;;0.48;100.00;101954.84;1034607;28;20352;-54
2023/12/27 02:58:14;;;;;;;8.60;4.47;;;;;;;0.49;100.00;101952.09;1035951;28;20435;-54
2023/12/27 02:58:46;;;;;;;4.05;3.45;;;;;;;0.52;100.00;101945.75;1041288;28;20304;-53
2023/12/27 02:59:17;;;;;;;4.63;3.95;;;;;;;0.45;100.00;101944.59;1040700;28;20299;-55
2023/12/27 02:59:49;;;;;;;4.72;4.18;;;;;;;0.29;100.00;101951.09;1041216;28;20299;-54
2023/12/27 03:00:21;;;;;;;14.30;3.88;;;;;;;0.21;100.00;101958.69;1040110;28;20288;-54
2023/12/27 03:00:52;;;;;;;5.07;4.00;;;;;;;0.27;100.00;101952.13;1044039;28;20294;-54
2023/12/27 03:01:24;;;;;;;5.43;3.80;;;;;;;0.34;100.00;101950.72;1045163;28;20792;-54
2023/12/27 03:01:56;;;;;;;6.72;3.88;;;;;;;0.40;100.00;101958.06;1044184;28;20372;-55
2023/12/27 03:02:27;;;;;;;9.80;4.35;;;;;;;0.36;100.00;101950.59;1041091;28;20463;-55
2023/12/27 03:02:59;;;;;;;7.38;5.35;;;;;;;0.33;100.00;101948.22;1040751;28;20299;-46
2023/12/27 03:03:31;;;;;;;6.93;4.53;;;;;;;0.17;100.00;101940.72;1040449;28;20307;-46
2023/12/27 03:04:05;;;;;;;6.80;4.05;;;;;;;0.12;100.00;101945.50;1039405;28;20308;-45
2023/12/27 03:04:36;;;;;;;10.65;5.07;;;;;;;0.12;100.00;101935.84;1042485;28;20305;-45
2023/12/27 03:05:08;;;;;;;5.15;4.63;;;;;;;0.22;100.00;101942.03;1037403;28;20566;-48
2023/12/27 03:05:40;;;;;;;6.47;4.53;;;;;;;0.27;100.00;101937.28;1037507;28;20304;-55
2023/12/27 03:06:12;;;;;;;8.55;4.55;;;;;;;0.22;100.00;101942.03;1033876;28;20308;-55
2023/12/27 03:06:43;;;;;;;4.57;4.13;;;;;;;0.37;100.00;101942.59;1037301;28;20311;-55
2023/12/27 03:07:16;;;;;;;6.45;4.95;;;;;;;0.46;100.00;101943.63;1035161;28;20313;-54
2023/12/27 03:07:48;;;;;;;7.38;4.70;;;;;;;0.52;100.00;101948.38;1035428;28;20654;-55
2023/12/27 03:08:20;;;;;;;9.15;4.43;;;;;;;0.31;100.00;101943.09;1039950;28;20300;-46
2023/12/27 03:08:53;;;;;;;10.48;4.05;;;;;;;0.23;100.00;101943.69;1035507;28;20384;-45
2023/12/27 03:09:25;;;;;;;5.05;2.95;;;;;;;0.22;100.00;101941.19;1037651;28;20331;-46
2023/12/27 03:09:57;;;;;;;5.13;4.35;;;;;;;0.17;100.00;101945.97;1038681;28;20430;-46
2023/12/27 03:10:28;;;;;;;12.65;4.18;;;;;;;0.26;100.00;101939.97;1039265;28;20370;-47
2023/12/27 03:11:00;;;;;;;7.18;3.67;;;;;;;0.32;100.00;101943.94;1035539;28;20403;-54
2023/12/27 03:11:32;;;;;;;7.32;4.80;;;;;;;0.40;100.00;101952.00;1036427;28;20304;-55
2023/12/27 03:12:04;;;;;;;10.80;4.55;;;;;;;0.44;100.00;101953.41;1034950;28;20790;-55
2023/12/27 03:12:36;;;;;;;6.63;4.57;;;;;;;0.58;100.00;101947.91;1035298;28;20305;-55
2023/12/27 03:13:08;;;;;;;4.90;4.43;;;;;;;0.68;100.00;101951.44;1038760;28;20318;-53
2023/12/27 03:13:39;;;;;;;10.18;4.38;;;;;;;0.67;100.00;101949.78;1039465;28;20296;-54
2023/12/27 03:14:11;;;;;;;9.57;5.03;;;;;;;0.69;100.00;101950.47;1042243;28;20803;-55
2023/12/27 03:14:43;;;;;;;5.72;4.07;;;;;;;0.46;100.00;101951.50;1041417;28;20789;-55
2023/12/27 03:15:14;;;;;;;5.80;4.60;;;;;;;0.55;100.00;101950.78;1042901;28;20314;-54
2023/12/27 03:15:46;;;;;;;4.80;3.97;;;;;;;0.61;100.00;101950.28;1043091;28;20305;-55
2023/12/27 03:16:19;;;;;;;9.88;4.10;;;;;;;0.67;100.00;101949.78;1043035;28;20681;-54
2023/12/27 03:16:51;;;;;;;11.77;4.35;;;;;;;0.72;100.00;101946.78;1042730;28;20399;-53
2023/12/27 03:17:22;;;;;;;8.75;4.47;;;;;;;0.69;100.00;101953.09;1040746;28;20291;-55
2023/12/27 03:17:54;;;;;;;5.57;3.78;;;;;;;0.71;100.00;101950.34;1039603;28;20296;-55
2023/12/27 03:18:26;;;;;;;7.30;4.28;;;;;;;0.78;100.00;101952.34;1039607;28;20666;-55
2023/12/27 03:18:59;;;;;;;5.47;4.53;;;;;;;0.80;100.00;101958.31;1039231;28;20643;-54
2023/12/27 03:19:31;;;;;;;6.80;4.40;;;;;;;0.80;100.00;101952.22;1039357;28;20351;-55
2023/12/27 03:20:03;;;;;;;5.28;4.78;;;;;;;0.45;100.00;101953.28;1042802;28;20689;-54
2023/12/27 03:20:35;;;;;;;8.77;4.45;;;;;;;0.37;100.00;101952.25;1041993;28;20353;-55
2023/12/27 03:21:07;;;;;;;10.15;5.05;;;;;;;0.36;100.00;101951.41;1035882;28;20326;-47
2023/12/27 03:21:39;;;;;;;8.55;4.88;;;;;;;0.27;100.00;101949.50;1035300;28;20328;-47
2023/12/27 03:22:10;;;;;;;4.95;4.43;;;;;;;0.20;100.00;101949.16;1039511;28;20297;-45
2023/12/27 03:22:42;;;;;;;11.88;5.40;;;;;;;0.16;100.00;101949.53;1039891;28;20299;-47
2023/12/27 03:23:14;;;;;;;7.25;5.30;;;;;;;0.27;100.00;101953.00;1037566;28;20348;-45
2023/12/27 03:23:47;;;;;;;7.05;4.80;;;;;;;0.13;100.00;101955.03;1035287;28;20332;-55
2023/12/27 03:24:20;;;;;;;10.85;4.45;;;;;;;0.10;100.00;101950.84;1039514;28;20351;-55
2023/12/27 03:24:52;;;;;;;7.13;4.55;;;;;;;0.24;100.00;101947.97;1042362;28;20299;-54
2023/12/27 03:25:24;;;;;;;6.80;4.00;;;;;;;0.25;100.00;101944.38;1039264;28;20546;-55